createdAt,value
2023-04-26T00:00:30.903Z,2.51
2023-04-26T00:03:00.089Z,2.38
2023-04-26T00:05:27.322Z,2.25
2023-04-26T00:07:54.363Z,2.19
2023-04-26T00:10:21.148Z,2.15
2023-04-26T00:12:47.580Z,2.11
2023-04-26T00:15:14.352Z,2.08
2023-04-26T00:17:41.291Z,2.03
2023-04-26T00:20:10.584Z,2.00
2023-04-26T00:22:38.050Z,1.96
2023-04-26T00:25:04.881Z,1.92
2023-04-26T00:27:31.916Z,1.88
2023-04-26T00:29:58.790Z,1.85
2023-04-26T00:32:25.366Z,1.82
2023-04-26T00:34:52.058Z,1.77
2023-04-26T00:37:18.512Z,1.73
2023-04-26T00:39:45.105Z,1.69
2023-04-26T00:42:11.855Z,1.64
2023-04-26T00:44:40.134Z,1.60
2023-04-26T00:47:06.781Z,1.56
2023-04-26T00:49:33.628Z,1.51
2023-04-26T00:52:00.275Z,1.46
2023-04-26T00:54:26.876Z,1.40
2023-04-26T00:56:54.335Z,1.32
2023-04-26T00:59:21.513Z,1.23
2023-04-26T01:01:49.191Z,1.15
2023-04-26T01:04:16.588Z,1.08
2023-04-26T01:06:48.700Z,0.98
2023-04-26T01:09:15.661Z,0.93
2023-04-26T01:11:43.901Z,0.84
2023-04-26T01:14:10.853Z,0.79
2023-04-26T01:16:38.451Z,0.73
2023-04-26T01:19:13.047Z,0.68
2023-04-26T01:21:40.600Z,0.66
2023-04-26T01:24:10.228Z,0.69
2023-04-26T01:26:43.897Z,0.69
2023-04-26T01:29:18.233Z,0.68
2023-04-26T01:31:45.522Z,0.64
2023-04-26T01:34:12.215Z,0.61
2023-04-26T01:36:39.112Z,0.57
2023-04-26T01:39:05.751Z,0.55
2023-04-26T01:41:33.705Z,0.51
2023-04-26T01:44:00.799Z,0.46
2023-04-26T01:46:27.548Z,0.43
2023-04-26T01:48:54.453Z,0.39
2023-04-26T01:51:21.803Z,0.37
2023-04-26T01:53:48.456Z,0.32
2023-04-26T01:56:14.938Z,0.33
2023-04-26T01:58:41.832Z,0.34
2023-04-26T02:01:09.422Z,0.33
2023-04-26T02:03:36.515Z,0.32
2023-04-26T02:06:03.456Z,0.32
2023-04-26T02:08:30.188Z,0.32
2023-04-26T02:10:56.960Z,0.32
2023-04-26T02:13:23.454Z,0.31
2023-04-26T02:15:51.366Z,0.29
2023-04-26T02:18:21.986Z,0.23
2023-04-26T02:20:48.900Z,0.23
2023-04-26T02:23:15.903Z,0.21
2023-04-26T02:25:45.945Z,0.20
2023-04-26T02:28:12.671Z,0.17
2023-04-26T02:30:39.197Z,0.11
2023-04-26T02:33:05.910Z,0.09
2023-04-26T02:35:32.452Z,0.07
2023-04-26T02:37:59.093Z,0.05
2023-04-26T02:40:25.723Z,0.00
2023-04-26T02:42:53.319Z,-0.05
2023-04-26T02:45:20.004Z,-0.07
2023-04-26T02:47:46.643Z,-0.10
2023-04-26T02:50:13.474Z,-0.10
2023-04-26T02:52:39.981Z,-0.14
2023-04-26T02:55:07.039Z,-0.17
2023-04-26T02:57:33.799Z,-0.22
2023-04-26T03:00:01.182Z,-0.25
2023-04-26T03:02:28.041Z,-0.29
2023-04-26T03:04:56.037Z,-0.32
2023-04-26T03:07:22.804Z,-0.31
2023-04-26T03:09:49.359Z,-0.31
2023-04-26T03:12:16.087Z,-0.29
2023-04-26T03:14:42.583Z,-0.29
2023-04-26T03:17:09.564Z,-0.36
2023-04-26T03:19:36.520Z,-0.34
2023-04-26T03:22:03.374Z,-0.30
2023-04-26T03:24:30.114Z,-0.29
2023-04-26T03:26:56.671Z,-0.29
2023-04-26T03:29:23.171Z,-0.32
2023-04-26T03:31:49.813Z,-0.37
2023-04-26T03:34:16.646Z,-0.44
2023-04-26T03:36:43.156Z,-0.49
2023-04-26T03:39:09.851Z,-0.50
2023-04-26T03:41:39.587Z,-0.53
2023-04-26T03:44:06.804Z,-0.56
2023-04-26T03:46:33.400Z,-0.58
2023-04-26T03:48:59.910Z,-0.62
2023-04-26T03:51:28.381Z,-0.57
2023-04-26T03:53:56.126Z,-0.51
2023-04-26T03:56:22.642Z,-0.52
2023-04-26T03:58:49.244Z,-0.54
2023-04-26T04:01:15.989Z,-0.59
2023-04-26T04:03:45.721Z,-0.57
2023-04-26T04:06:12.728Z,-0.55
2023-04-26T04:08:39.379Z,-0.54
2023-04-26T04:11:06.113Z,-0.54
2023-04-26T04:13:32.665Z,-0.50
2023-04-26T04:15:59.435Z,-0.46
2023-04-26T04:18:26.578Z,-0.42
2023-04-26T04:20:53.191Z,-0.43
2023-04-26T04:23:19.777Z,-0.44
2023-04-26T04:25:47.572Z,-0.43
2023-04-26T04:28:14.603Z,-0.40
2023-04-26T04:30:43.756Z,-0.37
2023-04-26T04:33:10.518Z,-0.35
2023-04-26T04:35:36.945Z,-0.34
2023-04-26T04:38:04.334Z,-0.29
2023-04-26T04:40:31.420Z,-0.23
2023-04-26T04:42:58.001Z,-0.18
2023-04-26T04:45:24.565Z,-0.11
2023-04-26T04:47:51.133Z,-0.06
2023-04-26T04:50:17.765Z,-0.03
2023-04-26T04:52:44.463Z,0.03
2023-04-26T04:55:11.418Z,0.07
2023-04-26T04:57:38.983Z,0.11
2023-04-26T05:00:12.809Z,0.19
2023-04-26T05:02:39.484Z,0.27
2023-04-26T05:05:07.961Z,0.33
2023-04-26T05:07:35.046Z,0.37
2023-04-26T05:10:02.078Z,0.43
2023-04-26T05:12:28.748Z,0.52
2023-04-26T05:14:55.511Z,0.67
2023-04-26T05:17:22.005Z,0.86
2023-04-26T05:19:48.541Z,1.02
2023-04-26T05:22:18.544Z,1.25
2023-04-26T05:24:47.195Z,1.46
2023-04-26T05:27:14.581Z,1.49
2023-04-26T05:29:41.796Z,1.52
2023-04-26T05:32:08.600Z,1.53
2023-04-26T05:34:35.464Z,1.61
2023-04-26T05:37:02.980Z,1.81
2023-04-26T05:39:30.070Z,1.97
2023-04-26T05:41:56.514Z,2.16
2023-04-26T05:44:23.047Z,2.29
2023-04-26T05:46:49.561Z,2.39
2023-04-26T05:49:16.178Z,2.81
2023-04-26T05:51:42.704Z,4.46
2023-04-26T05:54:09.154Z,6.18
2023-04-26T05:56:35.636Z,7.61
2023-04-26T05:59:02.144Z,8.20
2023-04-26T06:01:28.622Z,8.59
2023-04-26T06:03:58.078Z,9.22
2023-04-26T06:06:28.206Z,9.87
2023-04-26T06:08:54.935Z,10.44
2023-04-26T06:11:21.727Z,11.06
2023-04-26T06:13:48.282Z,11.46
2023-04-26T06:16:15.258Z,11.56
2023-04-26T06:18:42.143Z,11.27
2023-04-26T06:21:08.734Z,10.57
2023-04-26T06:23:35.222Z,9.91
2023-04-26T06:26:01.819Z,9.17
2023-04-26T06:28:28.326Z,8.68
2023-04-26T06:30:54.854Z,8.27
2023-04-26T06:33:21.353Z,7.85
2023-04-26T06:35:47.978Z,7.69
2023-04-26T06:38:14.495Z,7.65
2023-04-26T06:40:41.412Z,7.70
2023-04-26T06:43:07.874Z,7.90
2023-04-26T06:45:34.473Z,8.05
2023-04-26T06:48:02.214Z,8.10
2023-04-26T06:50:28.756Z,8.23
2023-04-26T06:52:55.338Z,8.27
2023-04-26T06:55:22.049Z,8.28
2023-04-26T06:57:49.918Z,8.33
2023-04-26T07:00:17.985Z,8.37
2023-04-26T07:02:44.638Z,8.66
2023-04-26T07:05:11.511Z,8.64
2023-04-26T07:07:38.118Z,8.69
2023-04-26T07:10:04.942Z,8.82
2023-04-26T07:12:31.565Z,8.95
2023-04-26T07:14:58.099Z,8.89
2023-04-26T07:17:24.554Z,8.89
2023-04-26T07:19:51.036Z,8.74
2023-04-26T07:22:17.672Z,8.86
2023-04-26T07:24:44.363Z,8.93
2023-04-26T07:27:11.222Z,9.08
2023-04-26T07:29:39.270Z,9.19
2023-04-26T07:32:06.638Z,9.39
2023-04-26T07:34:36.274Z,9.45
2023-04-26T07:37:02.753Z,9.55
2023-04-26T07:39:29.529Z,9.54
2023-04-26T07:41:55.997Z,9.57
2023-04-26T07:44:22.403Z,9.57
2023-04-26T07:46:48.890Z,9.59
2023-04-26T07:49:15.421Z,9.64
2023-04-26T07:51:44.362Z,9.47
2023-04-26T07:54:11.012Z,9.19
2023-04-26T07:56:37.502Z,9.08
2023-04-26T07:59:05.003Z,9.00
2023-04-26T08:01:31.514Z,8.95
2023-04-26T08:03:58.968Z,9.02
2023-04-26T08:06:26.854Z,9.11
2023-04-26T08:08:53.965Z,9.32
2023-04-26T08:11:20.389Z,9.60
2023-04-26T08:13:47.047Z,9.65
2023-04-26T08:16:13.822Z,9.82
2023-04-26T08:18:40.447Z,10.07
2023-04-26T08:21:06.894Z,10.32
2023-04-26T08:23:35.882Z,10.54
2023-04-26T08:26:03.002Z,10.45
2023-04-26T08:28:29.537Z,10.26
2023-04-26T08:30:56.135Z,9.97
2023-04-26T08:33:22.864Z,9.84
2023-04-26T08:35:49.299Z,9.62
2023-04-26T08:38:15.778Z,9.33
2023-04-26T08:40:46.620Z,9.06
2023-04-26T08:43:15.154Z,8.97
2023-04-26T08:45:44.467Z,8.86
2023-04-26T08:48:15.081Z,8.77
2023-04-26T08:50:45.345Z,8.75
2023-04-26T08:53:15.706Z,8.71
2023-04-26T08:55:42.965Z,8.68
2023-04-26T08:58:11.634Z,8.64
2023-04-26T09:00:38.582Z,8.66
2023-04-26T09:03:05.202Z,8.73
2023-04-26T09:05:34.292Z,8.58
2023-04-26T09:08:03.484Z,8.46
2023-04-26T09:10:32.174Z,8.44
2023-04-26T09:12:58.955Z,8.36
2023-04-26T09:15:27.353Z,8.33
2023-04-26T09:17:54.213Z,8.34
2023-04-26T09:20:22.238Z,8.40
2023-04-26T09:22:56.225Z,8.51
2023-04-26T09:25:30.631Z,8.59
2023-04-26T09:27:58.689Z,8.66
2023-04-26T09:30:27.354Z,8.69
2023-04-26T09:32:55.952Z,8.85
2023-04-26T09:35:28.908Z,9.01
2023-04-26T09:38:12.303Z,9.27
2023-04-26T09:40:41.233Z,9.41
2023-04-26T09:43:09.035Z,9.59
2023-04-26T09:45:53.650Z,9.82
2023-04-26T09:48:28.937Z,10.00
2023-04-26T09:51:08.587Z,10.27
2023-04-26T09:53:38.455Z,10.34
2023-04-26T09:56:11.994Z,10.38
2023-04-26T09:58:48.580Z,10.29
2023-04-26T10:01:17.636Z,10.28
2023-04-26T10:03:44.413Z,10.31
2023-04-26T10:06:13.095Z,10.38
2023-04-26T10:08:39.815Z,10.58
2023-04-26T10:11:13.131Z,10.80
2023-04-26T10:13:44.569Z,10.90
2023-04-26T10:16:11.799Z,11.07
2023-04-26T10:18:38.602Z,11.26
2023-04-26T10:21:11.505Z,11.25
2023-04-26T10:23:38.704Z,11.37
2023-04-26T10:26:05.854Z,11.56
2023-04-26T10:28:44.741Z,11.42
2023-04-26T10:31:13.291Z,11.25
2023-04-26T10:33:39.915Z,11.12
2023-04-26T10:36:09.124Z,10.77
2023-04-26T10:38:38.097Z,10.51
2023-04-26T10:41:31.455Z,10.44
2023-04-26T10:44:00.056Z,10.30
2023-04-26T10:46:35.883Z,10.25
2023-04-26T10:49:25.859Z,10.01
2023-04-26T10:52:27.515Z,9.99
2023-04-26T10:54:56.662Z,9.99
2023-04-26T10:57:44.634Z,10.21
2023-04-26T11:00:14.980Z,10.43
2023-04-26T11:02:56.559Z,10.53
2023-04-26T11:05:48.054Z,10.68
2023-04-26T11:08:17.489Z,10.86
2023-04-26T11:10:50.551Z,10.75
2023-04-26T11:13:17.924Z,10.47
2023-04-26T11:15:45.032Z,10.54
2023-04-26T11:18:11.912Z,10.60
2023-04-26T11:20:38.838Z,10.60
2023-04-26T11:23:08.809Z,10.56
2023-04-26T11:25:35.681Z,10.63
2023-04-26T11:28:03.558Z,10.64
2023-04-26T11:30:31.803Z,10.72
2023-04-26T11:32:59.872Z,10.80
2023-04-26T11:35:29.449Z,10.88
2023-04-26T11:38:00.160Z,11.02
2023-04-26T11:40:33.446Z,11.17
2023-04-26T11:43:09.666Z,11.31
2023-04-26T11:45:38.345Z,11.35
2023-04-26T11:48:10.999Z,11.42
2023-04-26T11:50:39.530Z,11.34
2023-04-26T11:53:07.991Z,11.17
2023-04-26T11:55:35.808Z,11.20
2023-04-26T11:58:10.994Z,11.12
2023-04-26T12:00:37.938Z,11.07
2023-04-26T12:03:11.103Z,11.45
2023-04-26T12:05:38.417Z,11.56
2023-04-26T12:08:06.729Z,11.87
2023-04-26T12:10:36.005Z,11.94
2023-04-26T12:13:02.667Z,12.06
2023-04-26T12:15:33.201Z,11.86
2023-04-26T12:18:06.695Z,11.49
2023-04-26T12:20:35.775Z,11.19
2023-04-26T12:23:10.677Z,10.88
2023-04-26T12:25:39.319Z,10.74
2023-04-26T12:28:12.652Z,10.46
2023-04-26T12:30:40.635Z,10.24
2023-04-26T12:33:16.604Z,10.04
2023-04-26T12:35:44.644Z,9.90
2023-04-26T12:38:12.766Z,9.78
2023-04-26T12:40:39.701Z,9.81
2023-04-26T12:43:08.423Z,9.75
2023-04-26T12:45:35.067Z,9.74
2023-04-26T12:48:02.134Z,9.63
2023-04-26T12:50:28.663Z,9.35
2023-04-26T12:52:55.351Z,9.47
2023-04-26T12:55:21.981Z,9.72
2023-04-26T12:57:48.666Z,9.91
2023-04-26T13:00:19.843Z,10.09
2023-04-26T13:02:46.773Z,10.38
2023-04-26T13:05:13.830Z,10.53
2023-04-26T13:07:42.599Z,10.82
2023-04-26T13:10:12.933Z,11.21
2023-04-26T13:12:39.839Z,11.24
2023-04-26T13:15:09.862Z,11.42
2023-04-26T13:17:37.733Z,11.54
2023-04-26T13:20:08.568Z,11.48
2023-04-26T13:22:35.324Z,11.38
2023-04-26T13:25:02.230Z,11.48
2023-04-26T13:27:31.431Z,11.41
2023-04-26T13:29:58.818Z,11.26
2023-04-26T13:32:25.663Z,11.04
2023-04-26T13:34:55.654Z,10.55
2023-04-26T13:37:24.962Z,10.13
2023-04-26T13:39:51.621Z,9.71
2023-04-26T13:42:18.495Z,9.46
2023-04-26T13:44:45.053Z,9.39
2023-04-26T13:47:11.632Z,9.23
2023-04-26T13:49:41.368Z,9.26
2023-04-26T13:52:08.007Z,9.35
2023-04-26T13:54:35.999Z,9.48
2023-04-26T13:57:02.881Z,9.57
2023-04-26T13:59:29.766Z,9.78
2023-04-26T14:01:58.938Z,9.91
2023-04-26T14:04:26.436Z,10.00
2023-04-26T14:06:53.428Z,10.09
2023-04-26T14:09:19.965Z,10.79
2023-04-26T14:11:51.609Z,11.89
2023-04-26T14:14:24.015Z,12.13
2023-04-26T14:16:50.536Z,12.19
2023-04-26T14:19:17.570Z,12.23
2023-04-26T14:21:44.431Z,11.86
2023-04-26T14:24:11.598Z,11.73
2023-04-26T14:26:38.235Z,11.70
2023-04-26T14:29:05.300Z,11.71
2023-04-26T14:31:32.668Z,11.88
2023-04-26T14:33:59.611Z,12.15
2023-04-26T14:36:26.340Z,12.22
2023-04-26T14:38:52.828Z,12.14
2023-04-26T14:41:19.843Z,12.14
2023-04-26T14:43:46.846Z,12.07
2023-04-26T14:46:13.792Z,11.88
2023-04-26T14:48:40.401Z,11.83
2023-04-26T14:51:07.046Z,11.83
2023-04-26T14:53:33.575Z,11.80
2023-04-26T14:56:01.119Z,11.55
2023-04-26T14:58:28.020Z,11.38
2023-04-26T15:00:54.550Z,11.31
2023-04-26T15:03:21.944Z,11.31
2023-04-26T15:05:48.569Z,11.23
2023-04-26T15:08:15.398Z,10.96
2023-04-26T15:10:42.123Z,10.74
2023-04-26T15:13:08.642Z,10.64
2023-04-26T15:15:35.154Z,10.27
2023-04-26T15:18:02.131Z,10.08
2023-04-26T15:20:29.026Z,10.00
2023-04-26T15:22:55.888Z,9.95
2023-04-26T15:25:22.373Z,9.88
2023-04-26T15:27:50.340Z,9.69
2023-04-26T15:30:16.910Z,9.60
2023-04-26T15:32:47.418Z,9.71
2023-04-26T15:35:15.615Z,9.83
2023-04-26T15:37:42.150Z,9.92
2023-04-26T15:40:10.522Z,9.94
2023-04-26T15:42:37.720Z,10.09
2023-04-26T15:45:04.569Z,9.98
2023-04-26T15:47:31.163Z,10.06
2023-04-26T15:50:03.581Z,10.26
2023-04-26T15:52:33.277Z,10.22
2023-04-26T15:54:59.805Z,10.09
2023-04-26T15:57:26.411Z,10.10
2023-04-26T15:59:53.081Z,10.11
2023-04-26T16:02:19.626Z,10.14
2023-04-26T16:04:46.501Z,10.22
2023-04-26T16:07:16.735Z,10.13
2023-04-26T16:09:48.486Z,10.17
2023-04-26T16:12:15.021Z,10.22
2023-04-26T16:14:41.759Z,10.14
2023-04-26T16:17:08.259Z,10.22
2023-04-26T16:19:34.861Z,10.36
2023-04-26T16:22:04.328Z,10.43
2023-04-26T16:24:31.222Z,10.44
2023-04-26T16:26:57.887Z,10.24
2023-04-26T16:29:25.230Z,10.26
2023-04-26T16:31:52.608Z,10.01
2023-04-26T16:34:19.991Z,9.83
2023-04-26T16:36:46.812Z,9.62
2023-04-26T16:39:15.599Z,9.48
2023-04-26T16:41:42.493Z,9.41
2023-04-26T16:44:09.708Z,9.29
2023-04-26T16:46:36.405Z,9.23
2023-04-26T16:49:09.258Z,9.23
2023-04-26T16:51:37.178Z,9.22
2023-04-26T16:54:04.228Z,9.20
2023-04-26T16:56:30.815Z,9.22
2023-04-26T16:58:57.533Z,9.20
2023-04-26T17:01:24.153Z,9.16
2023-04-26T17:03:52.023Z,9.20
2023-04-26T17:06:18.945Z,9.27
2023-04-26T17:08:48.858Z,9.35
2023-04-26T17:11:18.491Z,9.42
2023-04-26T17:13:45.081Z,9.38
2023-04-26T17:16:12.127Z,9.35
2023-04-26T17:18:38.651Z,9.35
2023-04-26T17:21:05.859Z,9.39
2023-04-26T17:23:33.594Z,9.37
2023-04-26T17:26:01.507Z,9.28
2023-04-26T17:28:28.456Z,9.23
2023-04-26T17:30:54.978Z,9.15
2023-04-26T17:33:21.583Z,9.05
2023-04-26T17:35:48.127Z,9.01
2023-04-26T17:38:14.806Z,8.94
2023-04-26T17:40:41.390Z,8.87
2023-04-26T17:43:09.279Z,8.77
2023-04-26T17:45:35.986Z,8.77
2023-04-26T17:48:02.660Z,8.74
2023-04-26T17:50:30.274Z,8.66
2023-04-26T17:52:56.857Z,8.56
2023-04-26T17:55:25.252Z,8.46
2023-04-26T17:57:52.029Z,8.37
2023-04-26T18:00:20.213Z,8.32
2023-04-26T18:02:47.387Z,8.28
2023-04-26T18:05:14.335Z,8.31
2023-04-26T18:07:40.821Z,8.25
2023-04-26T18:10:08.268Z,8.16
2023-04-26T18:12:35.414Z,8.09
2023-04-26T18:15:04.567Z,8.00
2023-04-26T18:17:31.136Z,7.91
2023-04-26T18:19:58.040Z,7.81
2023-04-26T18:22:24.661Z,7.72
2023-04-26T18:24:51.204Z,7.65
2023-04-26T18:27:18.218Z,7.61
2023-04-26T18:29:44.753Z,7.57
2023-04-26T18:32:11.240Z,7.53
2023-04-26T18:34:39.046Z,7.48
2023-04-26T18:37:06.264Z,7.41
2023-04-26T18:39:32.738Z,7.42
2023-04-26T18:41:59.185Z,7.37
2023-04-26T18:44:25.741Z,7.29
2023-04-26T18:46:55.685Z,7.25
2023-04-26T18:49:23.275Z,7.21
2023-04-26T18:51:49.796Z,7.14
2023-04-26T18:54:16.754Z,7.10
2023-04-26T18:56:44.105Z,7.03
2023-04-26T18:59:12.048Z,6.99
2023-04-26T19:01:38.786Z,6.96
2023-04-26T19:04:05.999Z,6.95
2023-04-26T19:06:33.070Z,6.89
2023-04-26T19:08:59.884Z,6.84
2023-04-26T19:11:26.888Z,6.79
2023-04-26T19:13:53.597Z,6.74
2023-04-26T19:16:22.524Z,6.73
2023-04-26T19:18:49.182Z,6.71
2023-04-26T19:21:16.487Z,6.67
2023-04-26T19:23:44.745Z,6.65
2023-04-26T19:26:12.820Z,6.59
2023-04-26T19:28:41.007Z,6.57
2023-04-26T19:31:10.235Z,6.50
2023-04-26T19:33:37.057Z,6.45
2023-04-26T19:36:03.931Z,6.40
2023-04-26T19:38:30.476Z,6.33
2023-04-26T19:40:56.871Z,6.27
2023-04-26T19:43:24.606Z,6.19
2023-04-26T19:45:51.350Z,6.12
2023-04-26T19:48:17.898Z,6.03
2023-04-26T19:50:45.174Z,5.95
2023-04-26T19:53:13.497Z,5.86
2023-04-26T19:55:40.945Z,5.76
2023-04-26T19:58:07.988Z,5.68
2023-04-26T20:00:39.219Z,5.62
2023-04-26T20:03:06.704Z,5.54
2023-04-26T20:05:34.830Z,5.43
2023-04-26T20:08:01.952Z,5.31
2023-04-26T20:10:34.038Z,5.25
2023-04-26T20:13:00.951Z,5.17
2023-04-26T20:15:27.995Z,5.09
2023-04-26T20:17:54.998Z,5.04
2023-04-26T20:20:21.771Z,4.93
2023-04-26T20:22:48.224Z,4.84
2023-04-26T20:25:14.738Z,4.74
2023-04-26T20:27:41.362Z,4.67
2023-04-26T20:30:08.134Z,4.61
2023-04-26T20:32:34.660Z,4.60
2023-04-26T20:35:01.264Z,4.55
2023-04-26T20:37:27.876Z,4.50
2023-04-26T20:39:54.477Z,4.42
2023-04-26T20:42:21.993Z,4.36
2023-04-26T20:44:48.690Z,4.26
2023-04-26T20:47:15.203Z,4.14
2023-04-26T20:49:41.892Z,4.05
2023-04-26T20:52:08.410Z,3.98
2023-04-26T20:54:34.967Z,3.90
2023-04-26T20:57:04.353Z,3.81
2023-04-26T20:59:30.941Z,3.76
2023-04-26T21:01:57.587Z,3.75
2023-04-26T21:04:24.681Z,3.74
2023-04-26T21:06:51.474Z,3.74
2023-04-26T21:09:18.200Z,3.71
2023-04-26T21:11:44.737Z,3.72
2023-04-26T21:14:11.487Z,3.69
2023-04-26T21:16:37.953Z,3.67
2023-04-26T21:19:05.363Z,3.58
2023-04-26T21:21:32.655Z,3.59
2023-04-26T21:23:59.401Z,3.65
2023-04-26T21:26:26.964Z,3.57
2023-04-26T21:28:53.721Z,3.46
2023-04-26T21:31:20.194Z,3.41
2023-04-26T21:33:46.705Z,3.36
2023-04-26T21:36:13.280Z,3.30
2023-04-26T21:38:39.972Z,3.26
2023-04-26T21:41:06.413Z,3.22
2023-04-26T21:43:34.682Z,3.20
2023-04-26T21:46:01.172Z,3.15
2023-04-26T21:48:27.894Z,3.10
2023-04-26T21:50:55.620Z,3.08
2023-04-26T21:53:22.131Z,3.02
2023-04-26T21:55:52.951Z,2.96
2023-04-26T21:58:20.707Z,2.89
2023-04-26T22:00:47.512Z,2.85
2023-04-26T22:03:14.137Z,2.79
2023-04-26T22:06:06.560Z,2.72
2023-04-26T22:08:33.360Z,2.66
2023-04-26T22:11:00.568Z,2.61
2023-04-26T22:13:27.467Z,2.54
2023-04-26T22:15:54.432Z,2.50
2023-04-26T22:18:21.270Z,2.46
2023-04-26T22:20:47.730Z,2.43
2023-04-26T22:23:14.523Z,2.40
2023-04-26T22:25:40.928Z,2.35
2023-04-26T22:28:07.720Z,2.30
2023-04-26T22:30:34.208Z,2.25
2023-04-26T22:33:00.939Z,2.20
2023-04-26T22:35:27.785Z,2.10
2023-04-26T22:37:55.459Z,2.04
2023-04-26T22:40:21.985Z,1.99
2023-04-26T22:42:48.562Z,1.97
2023-04-26T22:45:15.177Z,1.91
2023-04-26T22:47:42.142Z,1.89
2023-04-26T22:50:08.997Z,1.86
2023-04-26T22:52:35.856Z,1.81
2023-04-26T22:55:02.789Z,1.79
2023-04-26T22:57:30.077Z,1.77
2023-04-26T22:59:56.988Z,1.71
2023-04-26T23:02:23.910Z,1.66
2023-04-26T23:04:50.798Z,1.63
2023-04-26T23:07:17.275Z,1.64
2023-04-26T23:09:43.854Z,1.58
2023-04-26T23:12:20.086Z,1.57
2023-04-26T23:14:47.941Z,1.54
2023-04-26T23:17:14.665Z,1.51
2023-04-26T23:19:41.219Z,1.49
2023-04-26T23:22:07.888Z,1.43
2023-04-26T23:24:34.452Z,1.37
2023-04-26T23:27:01.267Z,1.36
2023-04-26T23:29:27.779Z,1.35
2023-04-26T23:31:54.486Z,1.37
2023-04-26T23:34:21.122Z,1.28
2023-04-26T23:36:47.645Z,1.26
2023-04-26T23:39:14.386Z,1.23
2023-04-26T23:41:41.194Z,1.19
2023-04-26T23:44:07.974Z,1.20
2023-04-26T23:46:34.445Z,1.16
2023-04-26T23:49:01.186Z,1.14
2023-04-26T23:51:27.789Z,1.05
2023-04-26T23:53:57.480Z,0.97
2023-04-26T23:56:27.019Z,0.92
2023-04-26T23:58:53.542Z,0.89
